Terminal Aerodrome Forecast
Issued by NWS

Home | Current Version | Previous Version | Text Only | Print | Product List | Glossary On
Versions: 1 2 3 4 5 6 7 8 9 10 11 12 13 14 15
000
FTUS41 KAKQ 241700
TAFPHF
TAF
KPHF 241727Z 2418/2518 33006KT P6SM SCT150
     FM242300 30003KT P6SM FEW250
     FM251400 17013KT P6SM FEW050 BKN200=

USA.gov is the U.S. government's official web portal to all federal, state and local government web resources and services.